sensor_id;sensor_type;location;lat;lon;timestamp;P1;durP1;ratioP1;P2;durP2;ratioP2
78148;SDS011;67396;42.664;23.382;2023-02-12T00:02:26;13.30;;;7.30;;
78148;SDS011;67396;42.664;23.382;2023-02-12T00:07:17;10.80;;;5.93;;
78148;SDS011;67396;42.664;23.382;2023-02-12T00:12:07;8.48;;;5.20;;
78148;SDS011;67396;42.664;23.382;2023-02-12T00:14:33;13.18;;;6.47;;
78148;SDS011;67396;42.664;23.382;2023-02-12T00:17:00;15.88;;;5.78;;
78148;SDS011;67396;42.664;23.382;2023-02-12T00:19:25;13.27;;;6.10;;
78148;SDS011;67396;42.664;23.382;2023-02-12T00:24:16;13.40;;;5.65;;
78148;SDS011;67396;42.664;23.382;2023-02-12T00:29:08;14.80;;;7.20;;
78148;SDS011;67396;42.664;23.382;2023-02-12T00:31:34;14.30;;;7.70;;
78148;SDS011;67396;42.664;23.382;2023-02-12T00:36:26;11.37;;;6.17;;
78148;SDS011;67396;42.664;23.382;2023-02-12T00:38:54;10.38;;;5.75;;
78148;SDS011;67396;42.664;23.382;2023-02-12T00:41:20;12.35;;;6.32;;
78148;SDS011;67396;42.664;23.382;2023-02-12T00:43:46;12.32;;;6.90;;
78148;SDS011;67396;42.664;23.382;2023-02-12T00:46:12;12.00;;;7.72;;
78148;SDS011;67396;42.664;23.382;2023-02-12T00:51:03;9.02;;;4.93;;
78148;SDS011;67396;42.664;23.382;2023-02-12T00:55:54;9.48;;;4.38;;
78148;SDS011;67396;42.664;23.382;2023-02-12T01:00:46;13.95;;;6.18;;
78148;SDS011;67396;42.664;23.382;2023-02-12T01:03:11;13.60;;;6.45;;
78148;SDS011;67396;42.664;23.382;2023-02-12T01:08:02;11.85;;;6.38;;
78148;SDS011;67396;42.664;23.382;2023-02-12T01:10:28;15.75;;;6.88;;
78148;SDS011;67396;42.664;23.382;2023-02-12T01:15:19;9.30;;;5.78;;
78148;SDS011;67396;42.664;23.382;2023-02-12T01:22:38;14.07;;;6.90;;
78148;SDS011;67396;42.664;23.382;2023-02-12T01:27:30;10.07;;;6.47;;
78148;SDS011;67396;42.664;23.382;2023-02-12T01:32:21;14.77;;;6.63;;
78148;SDS011;67396;42.664;23.382;2023-02-12T01:37:11;10.87;;;6.03;;
78148;SDS011;67396;42.664;23.382;2023-02-12T01:42:03;13.80;;;7.25;;
78148;SDS011;67396;42.664;23.382;2023-02-12T01:44:29;15.82;;;7.75;;
78148;SDS011;67396;42.664;23.382;2023-02-12T01:46:58;14.40;;;7.75;;
78148;SDS011;67396;42.664;23.382;2023-02-12T01:49:35;13.32;;;7.18;;
78148;SDS011;67396;42.664;23.382;2023-02-12T01:52:15;14.40;;;8.27;;
78148;SDS011;67396;42.664;23.382;2023-02-12T01:54:45;16.77;;;8.55;;
78148;SDS011;67396;42.664;23.382;2023-02-12T01:57:11;15.35;;;7.78;;
78148;SDS011;67396;42.664;23.382;2023-02-12T01:59:38;16.73;;;7.40;;
78148;SDS011;67396;42.664;23.382;2023-02-12T02:02:06;18.55;;;8.32;;
78148;SDS011;67396;42.664;23.382;2023-02-12T02:04:35;16.35;;;9.30;;
78148;SDS011;67396;42.664;23.382;2023-02-12T02:07:05;17.30;;;8.23;;
78148;SDS011;67396;42.664;23.382;2023-02-12T02:09:35;20.65;;;10.07;;
78148;SDS011;67396;42.664;23.382;2023-02-12T02:12:02;12.75;;;7.90;;
78148;SDS011;67396;42.664;23.382;2023-02-12T02:14:46;10.52;;;5.70;;
78148;SDS011;67396;42.664;23.382;2023-02-12T02:17:24;21.05;;;7.95;;
78148;SDS011;67396;42.664;23.382;2023-02-12T02:31:36;13.45;;;7.50;;
78148;SDS011;67396;42.664;23.382;2023-02-12T02:34:30;9.98;;;6.25;;
78148;SDS011;67396;42.664;23.382;2023-02-12T02:37:14;12.93;;;6.03;;
78148;SDS011;67396;42.664;23.382;2023-02-12T02:42:15;13.27;;;7.38;;
78148;SDS011;67396;42.664;23.382;2023-02-12T02:44:49;19.50;;;8.93;;
78148;SDS011;67396;42.664;23.382;2023-02-12T02:47:24;12.02;;;7.63;;
78148;SDS011;67396;42.664;23.382;2023-02-12T02:49:58;15.13;;;8.40;;
78148;SDS011;67396;42.664;23.382;2023-02-12T02:52:37;16.40;;;10.57;;
78148;SDS011;67396;42.664;23.382;2023-02-12T02:55:07;18.92;;;10.13;;
78148;SDS011;67396;42.664;23.382;2023-02-12T02:57:39;20.98;;;10.23;;
78148;SDS011;67396;42.664;23.382;2023-02-12T03:00:13;19.95;;;11.02;;
78148;SDS011;67396;42.664;23.382;2023-02-12T03:02:44;16.33;;;9.38;;
78148;SDS011;67396;42.664;23.382;2023-02-12T03:07:51;18.45;;;9.77;;
78148;SDS011;67396;42.664;23.382;2023-02-12T03:12:55;21.77;;;10.25;;
78148;SDS011;67396;42.664;23.382;2023-02-12T03:18:11;17.70;;;8.93;;
78148;SDS011;67396;42.664;23.382;2023-02-12T03:20:44;18.52;;;9.48;;
78148;SDS011;67396;42.664;23.382;2023-02-12T03:23:22;22.83;;;10.90;;
78148;SDS011;67396;42.664;23.382;2023-02-12T03:25:53;17.45;;;9.35;;
78148;SDS011;67396;42.664;23.382;2023-02-12T03:31:07;22.80;;;10.27;;
78148;SDS011;67396;42.664;23.382;2023-02-12T03:33:38;15.90;;;9.10;;
78148;SDS011;67396;42.664;23.382;2023-02-12T03:39:32;26.02;;;11.80;;
78148;SDS011;67396;42.664;23.382;2023-02-12T03:42:08;21.95;;;11.43;;
78148;SDS011;67396;42.664;23.382;2023-02-12T03:52:57;18.70;;;8.73;;
78148;SDS011;67396;42.664;23.382;2023-02-12T03:57:53;11.38;;;6.28;;
78148;SDS011;67396;42.664;23.382;2023-02-12T04:00:25;18.95;;;10.10;;
78148;SDS011;67396;42.664;23.382;2023-02-12T04:02:51;16.17;;;9.82;;
78148;SDS011;67396;42.664;23.382;2023-02-12T04:05:19;18.13;;;9.40;;
78148;SDS011;67396;42.664;23.382;2023-02-12T04:07:50;15.20;;;9.23;;
78148;SDS011;67396;42.664;23.382;2023-02-12T04:10:17;16.83;;;7.55;;
78148;SDS011;67396;42.664;23.382;2023-02-12T04:12:51;18.98;;;9.90;;
78148;SDS011;67396;42.664;23.382;2023-02-12T04:15:45;16.13;;;8.95;;
78148;SDS011;67396;42.664;23.382;2023-02-12T04:18:42;18.35;;;9.02;;
78148;SDS011;67396;42.664;23.382;2023-02-12T04:23:46;20.85;;;9.73;;
78148;SDS011;67396;42.664;23.382;2023-02-12T04:31:53;21.30;;;8.18;;
78148;SDS011;67396;42.664;23.382;2023-02-12T04:37:05;14.90;;;8.80;;
78148;SDS011;67396;42.664;23.382;2023-02-12T04:39:37;19.35;;;9.45;;
78148;SDS011;67396;42.664;23.382;2023-02-12T04:42:05;17.73;;;10.10;;
78148;SDS011;67396;42.664;23.382;2023-02-12T04:44:32;17.77;;;10.15;;
78148;SDS011;67396;42.664;23.382;2023-02-12T04:46:59;19.45;;;9.88;;
78148;SDS011;67396;42.664;23.382;2023-02-12T04:49:25;19.17;;;10.70;;
78148;SDS011;67396;42.664;23.382;2023-02-12T04:51:51;19.38;;;9.52;;
78148;SDS011;67396;42.664;23.382;2023-02-12T04:56:43;20.38;;;10.55;;
78148;SDS011;67396;42.664;23.382;2023-02-12T04:59:09;17.15;;;8.02;;
78148;SDS011;67396;42.664;23.382;2023-02-12T05:01:36;19.55;;;10.55;;
78148;SDS011;67396;42.664;23.382;2023-02-12T05:04:03;9.38;;;6.50;;
78148;SDS011;67396;42.664;23.382;2023-02-12T05:06:30;17.30;;;8.43;;
78148;SDS011;67396;42.664;23.382;2023-02-12T05:13:47;17.27;;;8.82;;
78148;SDS011;67396;42.664;23.382;2023-02-12T05:16:17;16.80;;;7.55;;
78148;SDS011;67396;42.664;23.382;2023-02-12T05:18:44;19.73;;;9.77;;
78148;SDS011;67396;42.664;23.382;2023-02-12T05:21:09;18.90;;;9.65;;
78148;SDS011;67396;42.664;23.382;2023-02-12T05:26:03;18.75;;;8.63;;
78148;SDS011;67396;42.664;23.382;2023-02-12T05:28:38;18.23;;;9.20;;
78148;SDS011;67396;42.664;23.382;2023-02-12T05:33:30;15.35;;;8.27;;
78148;SDS011;67396;42.664;23.382;2023-02-12T05:38:27;14.25;;;7.13;;
78148;SDS011;67396;42.664;23.382;2023-02-12T05:43:17;11.93;;;3.93;;
78148;SDS011;67396;42.664;23.382;2023-02-12T05:45:43;5.20;;;3.50;;
78148;SDS011;67396;42.664;23.382;2023-02-12T05:48:09;9.77;;;6.22;;
78148;SDS011;67396;42.664;23.382;2023-02-12T05:50:35;8.57;;;3.78;;
78148;SDS011;67396;42.664;23.382;2023-02-12T05:53:01;4.78;;;3.75;;
78148;SDS011;67396;42.664;23.382;2023-02-12T05:55:27;10.85;;;5.25;;
78148;SDS011;67396;42.664;23.382;2023-02-12T05:57:52;10.52;;;6.45;;
78148;SDS011;67396;42.664;23.382;2023-02-12T06:00:18;8.52;;;5.97;;
78148;SDS011;67396;42.664;23.382;2023-02-12T06:02:44;14.57;;;8.02;;
78148;SDS011;67396;42.664;23.382;2023-02-12T06:05:09;9.05;;;6.15;;
78148;SDS011;67396;42.664;23.382;2023-02-12T06:07:35;3.97;;;3.00;;
78148;SDS011;67396;42.664;23.382;2023-02-12T06:10:00;7.78;;;4.50;;
78148;SDS011;67396;42.664;23.382;2023-02-12T06:12:26;7.38;;;5.15;;
78148;SDS011;67396;42.664;23.382;2023-02-12T06:14:51;7.88;;;5.22;;
78148;SDS011;67396;42.664;23.382;2023-02-12T06:17:17;6.75;;;4.07;;
78148;SDS011;67396;42.664;23.382;2023-02-12T06:19:45;4.72;;;3.65;;
78148;SDS011;67396;42.664;23.382;2023-02-12T06:22:11;6.55;;;4.35;;
78148;SDS011;67396;42.664;23.382;2023-02-12T06:24:37;16.02;;;9.75;;
78148;SDS011;67396;42.664;23.382;2023-02-12T06:27:02;14.57;;;8.27;;
78148;SDS011;67396;42.664;23.382;2023-02-12T06:29:28;22.42;;;9.73;;
78148;SDS011;67396;42.664;23.382;2023-02-12T06:31:53;17.55;;;7.28;;
78148;SDS011;67396;42.664;23.382;2023-02-12T06:36:45;13.43;;;6.97;;
78148;SDS011;67396;42.664;23.382;2023-02-12T06:39:11;17.83;;;8.93;;
78148;SDS011;67396;42.664;23.382;2023-02-12T06:41:38;15.50;;;8.13;;
78148;SDS011;67396;42.664;23.382;2023-02-12T06:46:30;12.73;;;6.85;;
78148;SDS011;67396;42.664;23.382;2023-02-12T06:51:23;16.48;;;8.45;;
78148;SDS011;67396;42.664;23.382;2023-02-12T06:53:49;14.95;;;8.18;;
78148;SDS011;67396;42.664;23.382;2023-02-12T06:56:16;17.63;;;7.88;;
78148;SDS011;67396;42.664;23.382;2023-02-12T06:58:43;18.45;;;7.35;;
78148;SDS011;67396;42.664;23.382;2023-02-12T07:01:15;12.75;;;6.78;;
78148;SDS011;67396;42.664;23.382;2023-02-12T07:03:52;17.48;;;8.48;;
78148;SDS011;67396;42.664;23.382;2023-02-12T07:06:19;17.70;;;8.98;;
78148;SDS011;67396;42.664;23.382;2023-02-12T07:08:48;16.67;;;8.70;;
78148;SDS011;67396;42.664;23.382;2023-02-12T07:11:14;13.90;;;6.93;;
78148;SDS011;67396;42.664;23.382;2023-02-12T07:13:41;15.70;;;9.10;;
78148;SDS011;67396;42.664;23.382;2023-02-12T07:16:14;12.10;;;8.75;;
78148;SDS011;67396;42.664;23.382;2023-02-12T07:23:32;13.00;;;6.57;;
78148;SDS011;67396;42.664;23.382;2023-02-12T07:26:00;20.70;;;8.60;;
78148;SDS011;67396;42.664;23.382;2023-02-12T07:28:46;23.38;;;8.20;;
78148;SDS011;67396;42.664;23.382;2023-02-12T07:33:38;19.88;;;9.40;;
78148;SDS011;67396;42.664;23.382;2023-02-12T07:36:06;16.50;;;8.82;;
78148;SDS011;67396;42.664;23.382;2023-02-12T07:38:37;17.70;;;7.68;;
78148;SDS011;67396;42.664;23.382;2023-02-12T07:41:06;16.17;;;9.32;;
78148;SDS011;67396;42.664;23.382;2023-02-12T07:43:33;21.02;;;11.15;;
78148;SDS011;67396;42.664;23.382;2023-02-12T07:48:34;12.88;;;7.03;;
78148;SDS011;67396;42.664;23.382;2023-02-12T07:53:30;17.75;;;10.10;;
78148;SDS011;67396;42.664;23.382;2023-02-12T07:56:02;13.48;;;6.97;;
78148;SDS011;67396;42.664;23.382;2023-02-12T07:58:36;21.48;;;12.05;;
78148;SDS011;67396;42.664;23.382;2023-02-12T08:01:12;20.50;;;10.65;;
78148;SDS011;67396;42.664;23.382;2023-02-12T08:03:51;21.45;;;11.32;;
78148;SDS011;67396;42.664;23.382;2023-02-12T08:06:21;20.85;;;10.85;;
78148;SDS011;67396;42.664;23.382;2023-02-12T08:08:49;22.73;;;11.73;;
78148;SDS011;67396;42.664;23.382;2023-02-12T08:11:16;16.05;;;9.95;;
78148;SDS011;67396;42.664;23.382;2023-02-12T08:13:42;27.17;;;12.40;;
78148;SDS011;67396;42.664;23.382;2023-02-12T08:16:14;22.45;;;11.73;;
78148;SDS011;67396;42.664;23.382;2023-02-12T08:18:41;24.45;;;11.13;;
78148;SDS011;67396;42.664;23.382;2023-02-12T08:23:43;21.65;;;10.18;;
78148;SDS011;67396;42.664;23.382;2023-02-12T08:26:35;22.50;;;10.75;;
78148;SDS011;67396;42.664;23.382;2023-02-12T08:31:53;23.52;;;11.73;;
78148;SDS011;67396;42.664;23.382;2023-02-12T08:34:31;19.55;;;10.82;;
78148;SDS011;67396;42.664;23.382;2023-02-12T08:36:58;21.20;;;11.10;;
78148;SDS011;67396;42.664;23.382;2023-02-12T08:41:52;29.35;;;12.70;;
78148;SDS011;67396;42.664;23.382;2023-02-12T08:44:19;25.48;;;13.10;;
78148;SDS011;67396;42.664;23.382;2023-02-12T08:49:19;20.23;;;10.70;;
78148;SDS011;67396;42.664;23.382;2023-02-12T08:51:47;21.25;;;9.98;;
78148;SDS011;67396;42.664;23.382;2023-02-12T08:54:19;25.73;;;11.95;;
78148;SDS011;67396;42.664;23.382;2023-02-12T08:56:48;25.15;;;13.52;;
78148;SDS011;67396;42.664;23.382;2023-02-12T08:59:14;27.42;;;12.82;;
78148;SDS011;67396;42.664;23.382;2023-02-12T09:01:40;22.05;;;11.45;;
78148;SDS011;67396;42.664;23.382;2023-02-12T09:04:13;25.30;;;12.25;;
78148;SDS011;67396;42.664;23.382;2023-02-12T09:06:41;22.90;;;12.98;;
78148;SDS011;67396;42.664;23.382;2023-02-12T09:09:08;27.92;;;14.50;;
78148;SDS011;67396;42.664;23.382;2023-02-12T09:11:37;25.65;;;12.27;;
78148;SDS011;67396;42.664;23.382;2023-02-12T09:16:30;23.95;;;13.48;;
78148;SDS011;67396;42.664;23.382;2023-02-12T09:18:58;26.77;;;15.15;;
78148;SDS011;67396;42.664;23.382;2023-02-12T09:23:49;23.90;;;11.35;;
78148;SDS011;67396;42.664;23.382;2023-02-12T09:26:22;23.75;;;12.52;;
78148;SDS011;67396;42.664;23.382;2023-02-12T09:28:52;29.27;;;14.32;;
78148;SDS011;67396;42.664;23.382;2023-02-12T09:31:20;12.65;;;7.10;;
78148;SDS011;67396;42.664;23.382;2023-02-12T09:34:02;23.90;;;13.82;;
78148;SDS011;67396;42.664;23.382;2023-02-12T09:36:29;21.17;;;11.02;;
78148;SDS011;67396;42.664;23.382;2023-02-12T09:38:55;18.50;;;10.88;;
78148;SDS011;67396;42.664;23.382;2023-02-12T09:44:44;30.85;;;15.35;;
78148;SDS011;67396;42.664;23.382;2023-02-12T09:47:19;15.00;;;7.18;;
78148;SDS011;67396;42.664;23.382;2023-02-12T09:49:53;21.58;;;12.02;;
78148;SDS011;67396;42.664;23.382;2023-02-12T09:52:53;30.92;;;15.50;;
78148;SDS011;67396;42.664;23.382;2023-02-12T09:55:21;22.95;;;13.07;;
78148;SDS011;67396;42.664;23.382;2023-02-12T09:57:52;25.70;;;12.32;;
78148;SDS011;67396;42.664;23.382;2023-02-12T10:02:55;17.73;;;9.70;;
78148;SDS011;67396;42.664;23.382;2023-02-12T10:05:26;23.25;;;12.75;;
78148;SDS011;67396;42.664;23.382;2023-02-12T10:10:53;32.05;;;15.90;;
78148;SDS011;67396;42.664;23.382;2023-02-12T10:16:26;31.90;;;15.82;;
78148;SDS011;67396;42.664;23.382;2023-02-12T10:29:23;26.70;;;14.23;;
78148;SDS011;67396;42.664;23.382;2023-02-12T10:31:52;31.58;;;17.05;;
78148;SDS011;67396;42.664;23.382;2023-02-12T10:34:25;25.15;;;13.10;;
78148;SDS011;67396;42.664;23.382;2023-02-12T10:39:57;27.05;;;14.57;;
78148;SDS011;67396;42.664;23.382;2023-02-12T10:42:51;28.17;;;13.98;;
78148;SDS011;67396;42.664;23.382;2023-02-12T10:45:19;30.75;;;17.58;;
78148;SDS011;67396;42.664;23.382;2023-02-12T10:47:48;25.98;;;13.35;;
78148;SDS011;67396;42.664;23.382;2023-02-12T10:58:04;37.83;;;17.85;;
78148;SDS011;67396;42.664;23.382;2023-02-12T11:00:41;37.67;;;17.90;;
78148;SDS011;67396;42.664;23.382;2023-02-12T11:05:36;36.40;;;17.00;;
78148;SDS011;67396;42.664;23.382;2023-02-12T11:08:03;31.77;;;16.17;;
78148;SDS011;67396;42.664;23.382;2023-02-12T11:10:35;38.95;;;17.95;;
78148;SDS011;67396;42.664;23.382;2023-02-12T11:13:03;36.58;;;19.13;;
78148;SDS011;67396;42.664;23.382;2023-02-12T11:15:46;31.73;;;16.75;;
78148;SDS011;67396;42.664;23.382;2023-02-12T11:18:26;40.63;;;19.33;;
78148;SDS011;67396;42.664;23.382;2023-02-12T11:21:00;45.50;;;19.17;;
78148;SDS011;67396;42.664;23.382;2023-02-12T11:23:38;40.72;;;19.10;;
78148;SDS011;67396;42.664;23.382;2023-02-12T11:29:00;33.17;;;19.08;;
78148;SDS011;67396;42.664;23.382;2023-02-12T11:31:40;33.80;;;18.15;;
78148;SDS011;67396;42.664;23.382;2023-02-12T11:34:09;35.83;;;18.67;;
78148;SDS011;67396;42.664;23.382;2023-02-12T11:37:01;37.30;;;17.40;;
78148;SDS011;67396;42.664;23.382;2023-02-12T11:49:37;33.22;;;17.27;;
78148;SDS011;67396;42.664;23.382;2023-02-12T11:52:05;33.25;;;18.10;;
78148;SDS011;67396;42.664;23.382;2023-02-12T11:54:39;31.00;;;17.48;;
78148;SDS011;67396;42.664;23.382;2023-02-12T11:57:09;48.67;;;22.00;;
78148;SDS011;67396;42.664;23.382;2023-02-12T12:00:03;34.47;;;19.20;;
78148;SDS011;67396;42.664;23.382;2023-02-12T12:02:36;30.15;;;17.60;;
78148;SDS011;67396;42.664;23.382;2023-02-12T12:05:21;40.55;;;19.05;;
78148;SDS011;67396;42.664;23.382;2023-02-12T12:07:55;37.28;;;18.15;;
78148;SDS011;67396;42.664;23.382;2023-02-12T12:10:34;31.48;;;15.93;;
78148;SDS011;67396;42.664;23.382;2023-02-12T12:13:05;37.10;;;19.42;;
78148;SDS011;67396;42.664;23.382;2023-02-12T12:15:41;39.30;;;18.50;;
78148;SDS011;67396;42.664;23.382;2023-02-12T12:33:18;35.53;;;17.77;;
78148;SDS011;67396;42.664;23.382;2023-02-12T12:38:25;35.88;;;18.52;;
78148;SDS011;67396;42.664;23.382;2023-02-12T12:44:01;26.80;;;16.58;;
78148;SDS011;67396;42.664;23.382;2023-02-12T12:46:49;28.48;;;14.20;;
78148;SDS011;67396;42.664;23.382;2023-02-12T13:13:23;32.10;;;16.27;;
78148;SDS011;67396;42.664;23.382;2023-02-12T13:15:54;36.40;;;17.60;;
78148;SDS011;67396;42.664;23.382;2023-02-12T13:26:56;32.85;;;18.90;;
78148;SDS011;67396;42.664;23.382;2023-02-12T13:29:33;35.88;;;16.23;;
78148;SDS011;67396;42.664;23.382;2023-02-12T13:35:00;31.27;;;17.13;;
78148;SDS011;67396;42.664;23.382;2023-02-12T13:40:02;35.35;;;17.92;;
78148;SDS011;67396;42.664;23.382;2023-02-12T13:42:43;32.75;;;16.23;;
78148;SDS011;67396;42.664;23.382;2023-02-12T13:58:49;29.10;;;14.35;;
78148;SDS011;67396;42.664;23.382;2023-02-12T14:07:04;35.20;;;18.42;;
78148;SDS011;67396;42.664;23.382;2023-02-12T14:09:59;35.40;;;18.23;;
78148;SDS011;67396;42.664;23.382;2023-02-12T14:12:28;37.75;;;17.90;;
78148;SDS011;67396;42.664;23.382;2023-02-12T14:18:04;35.90;;;18.13;;
78148;SDS011;67396;42.664;23.382;2023-02-12T14:23:41;36.40;;;20.63;;
78148;SDS011;67396;42.664;23.382;2023-02-12T14:26:11;37.72;;;20.10;;
78148;SDS011;67396;42.664;23.382;2023-02-12T14:28:52;33.10;;;19.02;;
78148;SDS011;67396;42.664;23.382;2023-02-12T14:31:27;33.70;;;18.27;;
78148;SDS011;67396;42.664;23.382;2023-02-12T14:41:26;35.63;;;18.15;;
78148;SDS011;67396;42.664;23.382;2023-02-12T14:49:36;35.67;;;18.80;;
78148;SDS011;67396;42.664;23.382;2023-02-12T14:52:13;35.40;;;17.50;;
78148;SDS011;67396;42.664;23.382;2023-02-12T15:00:09;38.78;;;19.60;;
78148;SDS011;67396;42.664;23.382;2023-02-12T15:02:54;32.55;;;18.13;;
78148;SDS011;67396;42.664;23.382;2023-02-12T15:05:30;38.63;;;19.80;;
78148;SDS011;67396;42.664;23.382;2023-02-12T15:08:04;43.08;;;22.98;;
78148;SDS011;67396;42.664;23.382;2023-02-12T15:10:38;41.05;;;20.98;;
78148;SDS011;67396;42.664;23.382;2023-02-12T15:13:23;39.15;;;20.85;;
78148;SDS011;67396;42.664;23.382;2023-02-12T15:18:48;47.22;;;24.15;;
78148;SDS011;67396;42.664;23.382;2023-02-12T15:21:22;45.25;;;22.33;;
78148;SDS011;67396;42.664;23.382;2023-02-12T15:26:32;37.80;;;21.00;;
78148;SDS011;67396;42.664;23.382;2023-02-12T15:29:01;41.40;;;21.58;;
78148;SDS011;67396;42.664;23.382;2023-02-12T15:31:29;44.63;;;23.08;;
78148;SDS011;67396;42.664;23.382;2023-02-12T15:33:57;45.50;;;20.58;;
78148;SDS011;67396;42.664;23.382;2023-02-12T15:36:26;43.33;;;22.98;;
78148;SDS011;67396;42.664;23.382;2023-02-12T15:38:54;45.25;;;22.00;;
78148;SDS011;67396;42.664;23.382;2023-02-12T15:44:00;41.65;;;21.75;;
78148;SDS011;67396;42.664;23.382;2023-02-12T15:46:26;50.22;;;22.65;;
78148;SDS011;67396;42.664;23.382;2023-02-12T15:48:54;37.80;;;20.45;;
78148;SDS011;67396;42.664;23.382;2023-02-12T15:53:59;43.65;;;21.75;;
78148;SDS011;67396;42.664;23.382;2023-02-12T15:56:28;47.47;;;21.48;;
78148;SDS011;67396;42.664;23.382;2023-02-12T15:58:56;46.15;;;22.25;;
78148;SDS011;67396;42.664;23.382;2023-02-12T16:01:27;42.00;;;20.83;;
78148;SDS011;67396;42.664;23.382;2023-02-12T16:03:57;40.47;;;22.20;;
78148;SDS011;67396;42.664;23.382;2023-02-12T16:06:41;51.67;;;23.85;;
78148;SDS011;67396;42.664;23.382;2023-02-12T16:09:08;46.03;;;24.17;;
78148;SDS011;67396;42.664;23.382;2023-02-12T16:11:43;51.78;;;24.60;;
78148;SDS011;67396;42.664;23.382;2023-02-12T16:14:19;48.63;;;24.77;;
78148;SDS011;67396;42.664;23.382;2023-02-12T16:16:48;42.67;;;21.50;;
78148;SDS011;67396;42.664;23.382;2023-02-12T16:19:18;51.90;;;25.92;;
78148;SDS011;67396;42.664;23.382;2023-02-12T16:21:58;49.55;;;24.50;;
78148;SDS011;67396;42.664;23.382;2023-02-12T16:24:45;46.33;;;23.75;;
78148;SDS011;67396;42.664;23.382;2023-02-12T16:27:21;49.03;;;23.90;;
78148;SDS011;67396;42.664;23.382;2023-02-12T16:29:50;49.88;;;25.10;;
78148;SDS011;67396;42.664;23.382;2023-02-12T16:32:51;54.10;;;25.20;;
78148;SDS011;67396;42.664;23.382;2023-02-12T16:40:09;55.10;;;26.65;;
78148;SDS011;67396;42.664;23.382;2023-02-12T16:47:53;53.15;;;24.45;;
78148;SDS011;67396;42.664;23.382;2023-02-12T16:50:28;35.22;;;17.50;;
78148;SDS011;67396;42.664;23.382;2023-02-12T16:53:02;51.90;;;25.95;;
78148;SDS011;67396;42.664;23.382;2023-02-12T16:55:32;57.60;;;27.88;;
78148;SDS011;67396;42.664;23.382;2023-02-12T16:58:03;51.13;;;25.90;;
78148;SDS011;67396;42.664;23.382;2023-02-12T17:03:11;52.00;;;25.52;;
78148;SDS011;67396;42.664;23.382;2023-02-12T17:09:13;54.13;;;26.95;;
78148;SDS011;67396;42.664;23.382;2023-02-12T17:11:41;52.70;;;25.08;;
78148;SDS011;67396;42.664;23.382;2023-02-12T17:14:26;48.50;;;24.80;;
78148;SDS011;67396;42.664;23.382;2023-02-12T17:16:51;49.90;;;25.70;;
78148;SDS011;67396;42.664;23.382;2023-02-12T17:19:16;54.50;;;27.55;;
78148;SDS011;67396;42.664;23.382;2023-02-12T17:21:43;54.70;;;25.63;;
78148;SDS011;67396;42.664;23.382;2023-02-12T17:26:49;46.30;;;22.45;;
78148;SDS011;67396;42.664;23.382;2023-02-12T17:29:20;53.85;;;27.30;;
78148;SDS011;67396;42.664;23.382;2023-02-12T17:31:47;54.95;;;27.35;;
78148;SDS011;67396;42.664;23.382;2023-02-12T17:34:13;45.88;;;24.75;;
78148;SDS011;67396;42.664;23.382;2023-02-12T17:36:39;53.40;;;27.25;;
78148;SDS011;67396;42.664;23.382;2023-02-12T17:39:05;52.05;;;25.25;;
78148;SDS011;67396;42.664;23.382;2023-02-12T17:41:32;60.80;;;26.83;;
78148;SDS011;67396;42.664;23.382;2023-02-12T17:44:04;58.20;;;26.40;;
78148;SDS011;67396;42.664;23.382;2023-02-12T17:46:29;53.70;;;26.50;;
78148;SDS011;67396;42.664;23.382;2023-02-12T17:48:56;54.20;;;27.35;;
78148;SDS011;67396;42.664;23.382;2023-02-12T17:51:22;56.05;;;27.35;;
78148;SDS011;67396;42.664;23.382;2023-02-12T17:53:57;53.05;;;26.33;;
78148;SDS011;67396;42.664;23.382;2023-02-12T17:56:23;67.43;;;28.35;;
78148;SDS011;67396;42.664;23.382;2023-02-12T17:58:51;61.33;;;27.08;;
78148;SDS011;67396;42.664;23.382;2023-02-12T18:01:20;53.95;;;27.08;;
78148;SDS011;67396;42.664;23.382;2023-02-12T18:03:46;54.30;;;28.45;;
78148;SDS011;67396;42.664;23.382;2023-02-12T18:06:12;55.38;;;26.90;;
78148;SDS011;67396;42.664;23.382;2023-02-12T18:08:40;59.25;;;30.25;;
78148;SDS011;67396;42.664;23.382;2023-02-12T18:11:07;60.15;;;29.20;;
78148;SDS011;67396;42.664;23.382;2023-02-12T18:13:35;55.70;;;29.35;;
78148;SDS011;67396;42.664;23.382;2023-02-12T18:16:04;66.22;;;30.75;;
78148;SDS011;67396;42.664;23.382;2023-02-12T18:18:31;61.05;;;30.15;;
78148;SDS011;67396;42.664;23.382;2023-02-12T18:20:56;61.85;;;31.33;;
78148;SDS011;67396;42.664;23.382;2023-02-12T18:23:22;65.93;;;31.52;;
78148;SDS011;67396;42.664;23.382;2023-02-12T18:25:47;63.05;;;29.25;;
78148;SDS011;67396;42.664;23.382;2023-02-12T18:28:13;68.25;;;31.50;;
78148;SDS011;67396;42.664;23.382;2023-02-12T18:30:38;61.03;;;31.15;;
78148;SDS011;67396;42.664;23.382;2023-02-12T18:33:06;62.03;;;29.27;;
78148;SDS011;67396;42.664;23.382;2023-02-12T18:35:33;61.83;;;31.80;;
78148;SDS011;67396;42.664;23.382;2023-02-12T18:38:00;61.38;;;29.45;;
78148;SDS011;67396;42.664;23.382;2023-02-12T18:40:28;68.25;;;34.08;;
78148;SDS011;67396;42.664;23.382;2023-02-12T18:42:54;61.85;;;32.50;;
78148;SDS011;67396;42.664;23.382;2023-02-12T18:45:20;63.20;;;30.35;;
78148;SDS011;67396;42.664;23.382;2023-02-12T18:47:46;69.68;;;31.67;;
78148;SDS011;67396;42.664;23.382;2023-02-12T18:50:12;60.40;;;30.20;;
78148;SDS011;67396;42.664;23.382;2023-02-12T18:52:37;59.50;;;29.13;;
78148;SDS011;67396;42.664;23.382;2023-02-12T18:55:04;62.85;;;32.38;;
78148;SDS011;67396;42.664;23.382;2023-02-12T18:57:30;68.30;;;33.05;;
78148;SDS011;67396;42.664;23.382;2023-02-12T19:09:21;64.55;;;30.27;;
78148;SDS011;67396;42.664;23.382;2023-02-12T19:50:44;55.90;;;23.15;;
78148;SDS011;67396;42.664;23.382;2023-02-12T19:53:46;42.58;;;24.17;;
78148;SDS011;67396;42.664;23.382;2023-02-12T19:59:54;41.42;;;22.02;;
78148;SDS011;67396;42.664;23.382;2023-02-12T20:06:16;46.97;;;21.95;;
78148;SDS011;67396;42.664;23.382;2023-02-12T20:09:12;13.20;;;8.45;;
78148;SDS011;67396;42.664;23.382;2023-02-12T20:15:06;18.63;;;11.55;;
78148;SDS011;67396;42.664;23.382;2023-02-12T20:17:51;26.65;;;15.32;;
78148;SDS011;67396;42.664;23.382;2023-02-12T20:20:17;23.58;;;13.93;;
78148;SDS011;67396;42.664;23.382;2023-02-12T20:25:08;69.85;;;30.60;;
78148;SDS011;67396;42.664;23.382;2023-02-12T20:30:02;67.35;;;29.88;;
78148;SDS011;67396;42.664;23.382;2023-02-12T20:32:28;69.30;;;32.80;;
78148;SDS011;67396;42.664;23.382;2023-02-12T20:37:19;68.45;;;30.35;;
78148;SDS011;67396;42.664;23.382;2023-02-12T20:42:10;53.78;;;26.02;;
78148;SDS011;67396;42.664;23.382;2023-02-12T20:44:36;69.60;;;30.95;;
78148;SDS011;67396;42.664;23.382;2023-02-12T20:47:02;67.43;;;34.03;;
78148;SDS011;67396;42.664;23.382;2023-02-12T20:49:28;68.93;;;32.35;;
78148;SDS011;67396;42.664;23.382;2023-02-12T20:51:55;69.72;;;32.58;;
78148;SDS011;67396;42.664;23.382;2023-02-12T20:54:40;67.65;;;33.17;;
78148;SDS011;67396;42.664;23.382;2023-02-12T20:57:06;70.03;;;33.65;;
78148;SDS011;67396;42.664;23.382;2023-02-12T20:59:34;69.60;;;32.17;;
78148;SDS011;67396;42.664;23.382;2023-02-12T21:02:00;65.70;;;31.70;;
78148;SDS011;67396;42.664;23.382;2023-02-12T21:04:25;67.97;;;32.38;;